Home PIREPS Pireps

Flight WIN1004

  • Submitted By: Carl Hermans
  • Departure Airport: Bruxelles National (EBBR)
  • Arrival Airport: airport Innsbruck (LOWI)
  • Aircraft: YOUR CHOICE (YC)
  • Flight Time: 01.23
  • Date Submitted: 03/12/2016
  • Status: Accepted
Flight Details
Gross Revenue:
(25 load / € 0.00 per unit
€ 0.00
Fuel Cost:
(2098 fuel used @ 5.1 / unit)
€ 10,699.80

Additional Log Information:

View Log

Aircraft Used in flight is x737-800_v502 jetairfly
17:24Flaps 3 Selected at 140ft and 0kts
17:24 Engine 1 Started
17:24 Engine 2 Started
17:24 Engine 3 Started
17:24 Engine 4 Started
17:24 Strobe Lights ON at 140 AGL
17:24 Navigation Lights ON at 140 AGL
17:24 Beacon Lights ON at 140 AGL
17:24 Brakes are On
17:24 Recovered from Stall
17:24 Recovered from Overspeed
17:30 Brakes are Released
17:32 Taxi Lights ON at 130 AGL
17:32 Navigation Lights OFF at 130 AGL
17:32 Navigation Lights ON at 130 AGL
17:32 Navigation Lights OFF at 130 AGL
17:35 Brakes are On
17:35 Brakes are Released
17:40 Brakes are On
17:40 Brakes are Released
17:40 Brakes are On
17:40 Brakes are Released
17:40 Brakes are On
17:40 Brakes are Released
17:40 Brakes are On
17:40 Brakes are Released
17:41 Brakes are On
17:46 Brakes are Released
17:46 Brakes are On
17:46 Brakes are Released
17:48 You Took off @ 157 Knots and Flaps at Position 3
Departure Weather
EBBR 031620Z 07003KT CAVOK 02/00 Q1025 NOSIGrn
17:48 You are Airborne and your Navigation Lights are off
17:48 Landing Gear Up @ 170 Knots and 160 Feet
17:48 Taxi Lights OFF at 200 AGL
17:48Flaps Retracted at 1000ft and 236kts
17:49 Below 10000 feet you are not allowed to go over 250 knots
17:51 Above FL100 you need to switch of the landing lights
18:33 Overspeed
18:34 Recovered from Overspeed
18:41 You exceeded maximum bank angle
18:42Flaps 8 Selected at 4970ft and 237kts
18:42 Landing Gear Down @ 238 Knots and 4750 Feet
18:43 You Landed @ 152 Knots and with -1350 Vertical Speed
Arrival Weather
LOWI 031720Z 00000KT CAVOK M02/M04 Q1022 NOSIGrn
18:43 Your Landing was very hard
18:44 Brakes are On
18:44 Brakes are Released
18:44 Brakes are On
18:44 Brakes are Released
18:45Flaps 7 Selected at 1890ft and 0kts
18:45Flaps 3 Selected at 1890ft and 0kts
18:45Flaps Retracted at 1890ft and 0kts
18:45 Taxi Lights ON at 1890 AGL
18:46 Brakes are On
18:46 Brakes are Released
18:46 Brakes are On
18:47 Engine 1 Stoped
18:47 Engine 2 Stoped
18:47 Brussels Bel-Track1.0.0.11

Route Map

Corporate About Us Our Team Vacancies Information Fleet Route Network Rules and Regulations Operations Flight Schedules Event Center Tours Partners IVAO Vatsim Acars dev FSCB

fb Users Online Belgium Michael Bitu, Belgium Jan Roscam,
3 Pilot(s) and 107 Guest(s) Online
CMS by phpVMS - Design by Crazycreatives.com - Copyright © 2018 - Brussels Airlines Virtual